RYR13QE LICJ-LIEE
Flight info
| Callsign | RYR13QE |
|---|---|
| Flight time | 0h 38m |
| Altitude | 18000 |
| Route | KAPIL M871 NEVOT |
| Aircraft | B738/M-SDE3FGILRWY/SB1 |
Departure
| Time | 2026-05-04 20:04 |
|---|---|
| Airport | Falcone–Borsellino Airport (LICJ) |
Arrival
| Time | 2026-05-04 20:42 |
|---|---|
| Airport | Cagliari Elmas Airport (LIEE) |
| Time | Latitude | Longitude | Altitude | Speed | Heading |
|---|---|---|---|---|---|
| 2026-05-04 19:39 | 38.18369 | 13.10195 | 52 ft | 0 kts | 247° |
| 2026-05-04 19:57 | 38.18372 | 13.10205 | 52 ft | 4 kts | 247° |
| 2026-05-04 19:57 | 38.18381 | 13.10232 | 50 ft | 2 kts | 247° |
| 2026-05-04 19:57 | 38.18393 | 13.10259 | 51 ft | 4 kts | 220° |
| 2026-05-04 19:57 | 38.18414 | 13.10271 | 52 ft | 4 kts | 163° |
| 2026-05-04 19:58 | 38.18412 | 13.10272 | 52 ft | 4 kts | 157° |
| 2026-05-04 19:58 | 38.18388 | 13.10286 | 49 ft | 4 kts | 157° |
| 2026-05-04 19:58 | 38.18365 | 13.10298 | 52 ft | 1 kts | 157° |
| 2026-05-04 19:58 | 38.18364 | 13.10298 | 52 ft | 1 kts | 157° |
| 2026-05-04 20:00 | 38.18359 | 13.10301 | 52 ft | 4 kts | 157° |
| 2026-05-04 20:00 | 38.18299 | 13.10319 | 49 ft | 11 kts | 192° |
| 2026-05-04 20:01 | 38.18252 | 13.10244 | 51 ft | 12 kts | 248° |
| 2026-05-04 20:01 | 38.18222 | 13.10151 | 52 ft | 11 kts | 246° |
| 2026-05-04 20:01 | 38.18188 | 13.10052 | 52 ft | 14 kts | 247° |
| 2026-05-04 20:01 | 38.18147 | 13.09929 | 52 ft | 14 kts | 247° |
| 2026-05-04 20:02 | 38.18148 | 13.09833 | 49 ft | 11 kts | 315° |
| 2026-05-04 20:02 | 38.18216 | 13.09793 | 50 ft | 10 kts | 336° |
| 2026-05-04 20:02 | 38.18281 | 13.09755 | 51 ft | 11 kts | 325° |
| 2026-05-04 20:02 | 38.18327 | 13.09676 | 52 ft | 11 kts | 295° |
| 2026-05-04 20:03 | 38.18353 | 13.09586 | 50 ft | 11 kts | 276° |
| 2026-05-04 20:03 | 38.18316 | 13.09514 | 49 ft | 13 kts | 203° |
| 2026-05-04 20:03 | 38.18023 | 13.09351 | 50 ft | 83 kts | 204° |
| 2026-05-04 20:03 | 38.17289 | 13.08936 | 53 ft | 145 kts | 204° |
| 2026-05-04 20:04 | 38.16292 | 13.08356 | 546 ft | 159 kts | 206° |
| 2026-05-04 20:04 | 38.15470 | 13.07393 | 1240 ft | 166 kts | 241° |
| 2026-05-04 20:04 | 38.15133 | 13.05905 | 1711 ft | 192 kts | 264° |
| 2026-05-04 20:04 | 38.15369 | 13.04156 | 2229 ft | 210 kts | 292° |
| 2026-05-04 20:05 | 38.16136 | 13.02544 | 2848 ft | 216 kts | 302° |
| 2026-05-04 20:05 | 38.16976 | 13.00953 | 3546 ft | 214 kts | 302° |
| 2026-05-04 20:05 | 38.17813 | 12.99363 | 4140 ft | 222 kts | 301° |
| 2026-05-04 20:05 | 38.18678 | 12.97704 | 4849 ft | 226 kts | 301° |
| 2026-05-04 20:06 | 38.19539 | 12.96043 | 5645 ft | 225 kts | 301° |
| 2026-05-04 20:06 | 38.20397 | 12.94377 | 6420 ft | 226 kts | 302° |
| 2026-05-04 20:06 | 38.21255 | 12.92702 | 7167 ft | 226 kts | 302° |
| 2026-05-04 20:06 | 38.22112 | 12.91024 | 7909 ft | 227 kts | 302° |
| 2026-05-04 20:07 | 38.22971 | 12.89337 | 8644 ft | 228 kts | 302° |
| 2026-05-04 20:07 | 38.23831 | 12.87646 | 9390 ft | 228 kts | 302° |
| 2026-05-04 20:07 | 38.24678 | 12.85925 | 10083 ft | 233 kts | 296° |
| 2026-05-04 20:07 | 38.25166 | 12.83862 | 10308 ft | 257 kts | 284° |
| 2026-05-04 20:08 | 38.25683 | 12.81577 | 10501 ft | 281 kts | 288° |
| 2026-05-04 20:08 | 38.26313 | 12.79117 | 10684 ft | 304 kts | 289° |
| 2026-05-04 20:08 | 38.26997 | 12.76478 | 10999 ft | 321 kts | 288° |
| 2026-05-04 20:08 | 38.27695 | 12.73765 | 11681 ft | 324 kts | 288° |
| 2026-05-04 20:09 | 38.28391 | 12.71030 | 12497 ft | 324 kts | 288° |
| 2026-05-04 20:09 | 38.29081 | 12.68294 | 13312 ft | 326 kts | 288° |
| 2026-05-04 20:09 | 38.29771 | 12.65537 | 14097 ft | 328 kts | 287° |
| 2026-05-04 20:09 | 38.30464 | 12.62753 | 14792 ft | 332 kts | 287° |
| 2026-05-04 20:10 | 38.31163 | 12.59931 | 15456 ft | 337 kts | 287° |
| 2026-05-04 20:10 | 38.31871 | 12.57066 | 16127 ft | 341 kts | 287° |
| 2026-05-04 20:10 | 38.32586 | 12.54167 | 16790 ft | 346 kts | 287° |
| 2026-05-04 20:10 | 38.33310 | 12.51225 | 17455 ft | 350 kts | 287° |
| 2026-05-04 20:11 | 38.34043 | 12.48243 | 18113 ft | 355 kts | 287° |
| 2026-05-04 20:11 | 38.34784 | 12.45223 | 18718 ft | 360 kts | 287° |
| 2026-05-04 20:11 | 38.35532 | 12.42171 | 19328 ft | 362 kts | 287° |
| 2026-05-04 20:11 | 38.36284 | 12.39098 | 19975 ft | 364 kts | 287° |
| 2026-05-04 20:12 | 38.37037 | 12.36018 | 20634 ft | 365 kts | 287° |
| 2026-05-04 20:12 | 38.37794 | 12.32918 | 21217 ft | 368 kts | 287° |
| 2026-05-04 20:12 | 38.38557 | 12.29787 | 21780 ft | 371 kts | 287° |
| 2026-05-04 20:12 | 38.39325 | 12.26632 | 22345 ft | 375 kts | 287° |
| 2026-05-04 20:13 | 38.40088 | 12.23493 | 22927 ft | 376 kts | 287° |
| 2026-05-04 20:13 | 38.40860 | 12.20316 | 23676 ft | 374 kts | 287° |
| 2026-05-04 20:13 | 38.41625 | 12.17164 | 24371 ft | 370 kts | 287° |
| 2026-05-04 20:13 | 38.42381 | 12.14041 | 25028 ft | 367 kts | 287° |
| 2026-05-04 20:14 | 38.43132 | 12.10938 | 25634 ft | 366 kts | 286° |
| 2026-05-04 20:14 | 38.43880 | 12.07840 | 26234 ft | 365 kts | 286° |
| 2026-05-04 20:14 | 38.44624 | 12.04757 | 26859 ft | 362 kts | 286° |
| 2026-05-04 20:14 | 38.45361 | 12.01698 | 27493 ft | 360 kts | 285° |
| 2026-05-04 20:15 | 38.46095 | 11.98651 | 28043 ft | 360 kts | 285° |
| 2026-05-04 20:15 | 38.47557 | 11.92562 | 28131 ft | 358 kts | 285° |
| 2026-05-04 20:16 | 38.49020 | 11.86450 | 28124 ft | 361 kts | 285° |
| 2026-05-04 20:16 | 38.50484 | 11.80324 | 28125 ft | 361 kts | 285° |
| 2026-05-04 20:17 | 38.51947 | 11.74185 | 28106 ft | 361 kts | 285° |
| 2026-05-04 20:17 | 38.53396 | 11.68088 | 28102 ft | 361 kts | 285° |
| 2026-05-04 20:18 | 38.54850 | 11.61957 | 28119 ft | 360 kts | 285° |
| 2026-05-04 20:18 | 38.56297 | 11.55836 | 28107 ft | 359 kts | 285° |
| 2026-05-04 20:19 | 38.57737 | 11.49733 | 28108 ft | 358 kts | 285° |
| 2026-05-04 20:19 | 38.59169 | 11.43642 | 28104 ft | 357 kts | 285° |
| 2026-05-04 20:20 | 38.60597 | 11.37559 | 28102 ft | 357 kts | 285° |
| 2026-05-04 20:20 | 38.62020 | 11.31475 | 28101 ft | 357 kts | 285° |
| 2026-05-04 20:21 | 38.63434 | 11.25419 | 27746 ft | 351 kts | 284° |
| 2026-05-04 20:21 | 38.64126 | 11.22451 | 27488 ft | 346 kts | 284° |
| 2026-05-04 20:21 | 38.65480 | 11.16631 | 26971 ft | 336 kts | 284° |
| 2026-05-04 20:22 | 38.66140 | 11.13784 | 26718 ft | 332 kts | 284° |
| 2026-05-04 20:22 | 38.66804 | 11.10918 | 26494 ft | 344 kts | 284° |
| 2026-05-04 20:22 | 38.67500 | 11.07898 | 26283 ft | 364 kts | 284° |
| 2026-05-04 20:22 | 38.68236 | 11.04707 | 26021 ft | 384 kts | 284° |
| 2026-05-04 20:23 | 38.69014 | 11.01341 | 25643 ft | 404 kts | 285° |
| 2026-05-04 20:23 | 38.69813 | 10.97881 | 25218 ft | 405 kts | 285° |
| 2026-05-04 20:23 | 38.70611 | 10.94427 | 24792 ft | 404 kts | 285° |
| 2026-05-04 20:23 | 38.71437 | 10.90992 | 24324 ft | 403 kts | 286° |
| 2026-05-04 20:24 | 38.72283 | 10.87582 | 23903 ft | 401 kts | 286° |
| 2026-05-04 20:24 | 38.73133 | 10.84190 | 23438 ft | 399 kts | 286° |
| 2026-05-04 20:24 | 38.73978 | 10.80816 | 22961 ft | 397 kts | 286° |
| 2026-05-04 20:24 | 38.74814 | 10.77461 | 22529 ft | 394 kts | 286° |
| 2026-05-04 20:25 | 38.75640 | 10.74134 | 22105 ft | 390 kts | 286° |
| 2026-05-04 20:25 | 38.76446 | 10.70875 | 21691 ft | 387 kts | 286° |
| 2026-05-04 20:25 | 38.77266 | 10.67552 | 21277 ft | 384 kts | 286° |
| 2026-05-04 20:25 | 38.78066 | 10.64296 | 20873 ft | 382 kts | 286° |
| 2026-05-04 20:26 | 38.78850 | 10.61106 | 20473 ft | 379 kts | 286° |
| 2026-05-04 20:26 | 38.79638 | 10.57889 | 20075 ft | 377 kts | 286° |
| 2026-05-04 20:26 | 38.80420 | 10.54694 | 19674 ft | 375 kts | 286° |
| 2026-05-04 20:26 | 38.81196 | 10.51520 | 19278 ft | 372 kts | 286° |
| 2026-05-04 20:27 | 38.81967 | 10.48363 | 18882 ft | 370 kts | 286° |
| 2026-05-04 20:27 | 38.82731 | 10.45228 | 18487 ft | 367 kts | 286° |
| 2026-05-04 20:27 | 38.83489 | 10.42114 | 18033 ft | 365 kts | 286° |
| 2026-05-04 20:27 | 38.84242 | 10.39021 | 17612 ft | 362 kts | 286° |
| 2026-05-04 20:28 | 38.84987 | 10.35952 | 17203 ft | 358 kts | 286° |
| 2026-05-04 20:28 | 38.85724 | 10.32914 | 16809 ft | 356 kts | 286° |
| 2026-05-04 20:28 | 38.86455 | 10.29897 | 16422 ft | 353 kts | 285° |
| 2026-05-04 20:28 | 38.87181 | 10.26900 | 16028 ft | 351 kts | 285° |
| 2026-05-04 20:29 | 38.87901 | 10.23919 | 15644 ft | 349 kts | 285° |
| 2026-05-04 20:29 | 38.88616 | 10.20953 | 15265 ft | 347 kts | 285° |
| 2026-05-04 20:29 | 38.89329 | 10.17998 | 14895 ft | 346 kts | 285° |
| 2026-05-04 20:29 | 38.90038 | 10.15051 | 14511 ft | 345 kts | 285° |
| 2026-05-04 20:30 | 38.90743 | 10.12118 | 14147 ft | 344 kts | 285° |
| 2026-05-04 20:30 | 38.91446 | 10.09192 | 13750 ft | 342 kts | 285° |
| 2026-05-04 20:30 | 38.92145 | 10.06275 | 13335 ft | 341 kts | 284° |
| 2026-05-04 20:30 | 38.92841 | 10.03373 | 12933 ft | 339 kts | 284° |
| 2026-05-04 20:31 | 38.93530 | 10.00491 | 12545 ft | 337 kts | 284° |
| 2026-05-04 20:31 | 38.94216 | 9.97623 | 12162 ft | 335 kts | 284° |
| 2026-05-04 20:31 | 38.94897 | 9.94770 | 11789 ft | 333 kts | 284° |
| 2026-05-04 20:31 | 38.95574 | 9.91928 | 11417 ft | 332 kts | 284° |
| 2026-05-04 20:32 | 38.96248 | 9.89097 | 11051 ft | 331 kts | 284° |
| 2026-05-04 20:32 | 38.96920 | 9.86272 | 10688 ft | 330 kts | 284° |
| 2026-05-04 20:32 | 38.97590 | 9.83449 | 10317 ft | 330 kts | 284° |
| 2026-05-04 20:32 | 38.98254 | 9.80652 | 10132 ft | 324 kts | 283° |
| 2026-05-04 20:33 | 38.98912 | 9.77880 | 9767 ft | 325 kts | 283° |
| 2026-05-04 20:33 | 38.99568 | 9.75105 | 9396 ft | 325 kts | 283° |
| 2026-05-04 20:33 | 39.00224 | 9.72326 | 9034 ft | 325 kts | 284° |
| 2026-05-04 20:33 | 39.00879 | 9.69549 | 8673 ft | 325 kts | 284° |
| 2026-05-04 20:34 | 39.01535 | 9.66767 | 8312 ft | 325 kts | 284° |
| 2026-05-04 20:34 | 39.02191 | 9.63980 | 7948 ft | 326 kts | 284° |
| 2026-05-04 20:34 | 39.02847 | 9.61190 | 7591 ft | 326 kts | 284° |
| 2026-05-04 20:34 | 39.03503 | 9.58397 | 7232 ft | 326 kts | 284° |
| 2026-05-04 20:35 | 39.04150 | 9.55642 | 6863 ft | 327 kts | 284° |
| 2026-05-04 20:35 | 39.04593 | 9.53752 | 6611 ft | 327 kts | 284° |
| 2026-05-04 20:35 | 39.05461 | 9.50045 | 6096 ft | 325 kts | 285° |
| 2026-05-04 20:35 | 39.06108 | 9.47280 | 5727 ft | 320 kts | 285° |
| 2026-05-04 20:36 | 39.06747 | 9.44550 | 5328 ft | 317 kts | 284° |
| 2026-05-04 20:36 | 39.07375 | 9.41858 | 5025 ft | 310 kts | 284° |
| 2026-05-04 20:36 | 39.07984 | 9.39246 | 4891 ft | 299 kts | 284° |
| 2026-05-04 20:36 | 39.08571 | 9.36730 | 4758 ft | 289 kts | 284° |
| 2026-05-04 20:37 | 39.08955 | 9.35078 | 4665 ft | 282 kts | 285° |
| 2026-05-04 20:37 | 39.09512 | 9.32680 | 4554 ft | 278 kts | 284° |
| 2026-05-04 20:37 | 39.10059 | 9.30318 | 4306 ft | 282 kts | 285° |
| 2026-05-04 20:37 | 39.10624 | 9.27882 | 4003 ft | 275 kts | 285° |
| 2026-05-04 20:38 | 39.11152 | 9.25604 | 3759 ft | 263 kts | 285° |
| 2026-05-04 20:38 | 39.11663 | 9.23396 | 3562 ft | 251 kts | 285° |
| 2026-05-04 20:38 | 39.12147 | 9.21314 | 3498 ft | 234 kts | 287° |
| 2026-05-04 20:38 | 39.12978 | 9.19513 | 3008 ft | 238 kts | 319° |
| 2026-05-04 20:39 | 39.14266 | 9.18194 | 2655 ft | 236 kts | 316° |
| 2026-05-04 20:39 | 39.15441 | 9.16760 | 2360 ft | 230 kts | 315° |
| 2026-05-04 20:39 | 39.16589 | 9.15392 | 2065 ft | 217 kts | 317° |
| 2026-05-04 20:39 | 39.17662 | 9.14142 | 1780 ft | 200 kts | 317° |
| 2026-05-04 20:40 | 39.18655 | 9.12986 | 1509 ft | 185 kts | 317° |
| 2026-05-04 20:40 | 39.19577 | 9.11912 | 1288 ft | 173 kts | 318° |
| 2026-05-04 20:40 | 39.20426 | 9.10923 | 1057 ft | 158 kts | 318° |
| 2026-05-04 20:40 | 39.21224 | 9.09993 | 880 ft | 156 kts | 318° |
| 2026-05-04 20:41 | 39.22023 | 9.09056 | 695 ft | 152 kts | 317° |
| 2026-05-04 20:41 | 39.22785 | 9.08169 | 439 ft | 146 kts | 316° |
| 2026-05-04 20:41 | 39.23532 | 9.07300 | 235 ft | 143 kts | 316° |
| 2026-05-04 20:41 | 39.24265 | 9.06449 | 37 ft | 140 kts | 316° |
| 2026-05-04 20:42 | 39.24898 | 9.05718 | 15 ft | 95 kts | 318° |
| 2026-05-04 20:42 | 39.25226 | 9.05337 | 14 ft | 32 kts | 319° |
| 2026-05-04 20:42 | 39.25299 | 9.05297 | 15 ft | 8 kts | 31° |
| 2026-05-04 20:42 | 39.25335 | 9.05353 | 14 ft | 8 kts | 50° |
| 2026-05-04 20:43 | 39.25375 | 9.05411 | 14 ft | 10 kts | 48° |
| 2026-05-04 20:43 | 39.25398 | 9.05500 | 14 ft | 11 kts | 101° |
| 2026-05-04 20:43 | 39.25381 | 9.05598 | 14 ft | 11 kts | 116° |
| 2026-05-04 20:43 | 39.25329 | 9.05676 | 15 ft | 12 kts | 136° |
| 2026-05-04 20:44 | 39.25262 | 9.05755 | 16 ft | 14 kts | 137° |
| 2026-05-04 20:44 | 39.25190 | 9.05836 | 15 ft | 14 kts | 138° |
| 2026-05-04 20:44 | 39.25134 | 9.05906 | 17 ft | 3 kts | 122° |
| 2026-05-04 20:44 | 39.25142 | 9.05933 | 14 ft | 4 kts | 38° |
| 2026-05-04 20:45 | 39.25166 | 9.05963 | 14 ft | 6 kts | 50° |
| 2026-05-04 20:45 | 39.25200 | 9.05980 | 14 ft | 6 kts | 341° |
| 2026-05-04 20:45 | 39.25232 | 9.05952 | 14 ft | 3 kts | 321° |
| 2026-05-04 20:45 | 39.25235 | 9.05949 | 14 ft | 0 kts | 321° |